createdAt,value
2018-10-12T00:00:48.491Z,13.44
2018-10-12T00:01:49.140Z,13.42
2018-10-12T00:02:48.387Z,13.35
2018-10-12T00:03:49.108Z,13.40
2018-10-12T00:04:49.108Z,13.32
2018-10-12T00:05:48.350Z,13.32
2018-10-12T00:06:49.159Z,13.28
2018-10-12T00:07:49.111Z,13.24
2018-10-12T00:08:49.116Z,13.29
2018-10-12T00:09:49.109Z,13.25
2018-10-12T00:10:48.244Z,13.25
2018-10-12T00:11:49.105Z,13.31
2018-10-12T00:12:48.614Z,13.35
2018-10-12T00:13:48.662Z,13.29
2018-10-12T00:14:48.052Z,13.24
2018-10-12T00:15:48.641Z,13.32
2018-10-12T00:16:48.615Z,13.28
2018-10-12T00:17:48.560Z,13.24
2018-10-12T00:18:48.681Z,13.20
2018-10-12T00:19:48.607Z,13.21
2018-10-12T00:20:48.617Z,13.20
2018-10-12T00:21:48.011Z,13.19
2018-10-12T00:22:48.609Z,13.20
2018-10-12T00:23:48.615Z,13.19
2018-10-12T00:24:48.689Z,13.19
2018-10-12T00:25:47.744Z,13.20
2018-10-12T00:26:47.838Z,13.21
2018-10-12T00:27:47.702Z,13.20
2018-10-12T00:28:47.799Z,13.16
2018-10-12T00:29:48.518Z,13.16
2018-10-12T00:30:48.110Z,13.14
2018-10-12T00:31:48.112Z,13.19
2018-10-12T00:32:48.521Z,13.14
2018-10-12T00:33:48.112Z,13.14
2018-10-12T00:34:47.569Z,13.09
2018-10-12T00:35:47.669Z,13.10
2018-10-12T00:36:48.125Z,13.09
2018-10-12T00:37:47.449Z,13.09
2018-10-12T00:38:47.425Z,13.06
2018-10-12T00:39:47.352Z,13.14
2018-10-12T00:40:48.116Z,13.09
2018-10-12T00:41:47.680Z,13.07
2018-10-12T00:42:48.113Z,13.03
2018-10-12T00:43:47.248Z,13.07
2018-10-12T00:44:48.111Z,13.01
2018-10-12T00:45:47.185Z,13.02
2018-10-12T00:46:47.193Z,12.98
2018-10-12T00:47:48.113Z,13.02
2018-10-12T00:48:47.170Z,13.06
2018-10-12T00:49:47.127Z,13.10
2018-10-12T00:50:47.049Z,13.03
2018-10-12T00:51:47.067Z,13.01
2018-10-12T00:52:47.011Z,13.06
2018-10-12T00:53:47.178Z,13.02
2018-10-12T00:54:46.930Z,13.02
2018-10-12T00:55:47.615Z,12.98
2018-10-12T00:56:47.614Z,12.91
2018-10-12T00:57:47.615Z,13.07
2018-10-12T00:58:46.863Z,12.89
2018-10-12T00:59:47.701Z,12.91
2018-10-12T01:00:46.789Z,12.92
2018-10-12T01:01:46.782Z,12.86
2018-10-12T01:02:47.613Z,12.84
2018-10-12T01:03:47.178Z,12.84
2018-10-12T01:04:47.619Z,12.84
2018-10-12T01:05:47.618Z,12.89
2018-10-12T01:06:47.152Z,12.80
2018-10-12T01:07:46.568Z,12.80
2018-10-12T01:08:46.691Z,12.86
2018-10-12T01:09:46.510Z,12.80
2018-10-12T01:10:47.157Z,12.84
2018-10-12T01:11:47.129Z,12.83
2018-10-12T01:12:46.680Z,12.83
2018-10-12T01:13:46.402Z,12.71
2018-10-12T01:14:46.405Z,12.80
2018-10-12T01:15:46.411Z,12.69
2018-10-12T01:16:46.313Z,12.70
2018-10-12T01:17:46.283Z,12.62
2018-10-12T01:18:47.201Z,12.59
2018-10-12T01:19:47.136Z,12.66
2018-10-12T01:20:46.235Z,12.58
2018-10-12T01:21:47.130Z,12.69
2018-10-12T01:22:47.121Z,12.71
2018-10-12T01:23:46.659Z,12.61
2018-10-12T01:24:46.625Z,12.62
2018-10-12T01:25:46.175Z,12.61
2018-10-12T01:26:46.174Z,12.56
2018-10-12T01:27:46.006Z,12.53
2018-10-12T01:28:45.970Z,12.53
2018-10-12T01:29:46.625Z,12.56
2018-10-12T01:30:45.915Z,12.53
2018-10-12T01:31:45.944Z,12.55
2018-10-12T01:32:46.628Z,12.44
2018-10-12T01:33:46.629Z,12.44
2018-10-12T01:34:46.624Z,12.47
2018-10-12T01:35:46.680Z,12.51
2018-10-12T01:36:46.626Z,12.45
2018-10-12T01:37:46.621Z,12.56
2018-10-12T01:38:46.623Z,12.55
2018-10-12T01:39:46.181Z,12.62
2018-10-12T01:40:45.628Z,12.65
2018-10-12T01:41:46.121Z,12.65
2018-10-12T01:42:45.622Z,12.70
2018-10-12T01:43:45.549Z,12.70
2018-10-12T01:44:45.516Z,12.65
2018-10-12T01:45:45.687Z,12.65
2018-10-12T01:46:45.459Z,12.66
2018-10-12T01:47:48.124Z,12.63
2018-10-12T01:48:45.417Z,12.63
2018-10-12T01:49:46.130Z,12.63
2018-10-12T01:50:45.380Z,12.59
2018-10-12T01:51:46.133Z,12.62
2018-10-12T01:52:45.288Z,12.63
2018-10-12T01:53:46.123Z,12.65
2018-10-12T01:54:46.133Z,12.65
2018-10-12T01:55:45.267Z,12.63
2018-10-12T01:56:45.180Z,12.58
2018-10-12T01:57:46.133Z,12.65
2018-10-12T01:58:45.124Z,12.70
2018-10-12T01:59:45.630Z,12.63
2018-10-12T02:00:45.186Z,12.73
2018-10-12T02:01:45.037Z,12.63
2018-10-12T02:02:45.074Z,12.66
2018-10-12T02:03:44.993Z,12.61
2018-10-12T02:04:44.996Z,12.66
2018-10-12T02:05:44.922Z,12.63
2018-10-12T02:06:44.895Z,12.56
2018-10-12T02:07:44.993Z,12.56
2018-10-12T02:08:44.840Z,12.52
2018-10-12T02:09:46.631Z,12.61
2018-10-12T02:10:44.817Z,12.48
2018-10-12T02:11:44.750Z,12.44
2018-10-12T02:12:44.725Z,12.53
2018-10-12T02:13:44.699Z,12.56
2018-10-12T02:14:45.637Z,12.53
2018-10-12T02:15:44.687Z,12.56
2018-10-12T02:16:45.137Z,12.48
2018-10-12T02:17:44.667Z,12.55
2018-10-12T02:18:44.555Z,12.48
2018-10-12T02:19:45.128Z,12.44
2018-10-12T02:20:44.550Z,12.43
2018-10-12T02:21:44.465Z,12.44
2018-10-12T02:22:44.437Z,12.45
2018-10-12T02:23:44.412Z,12.55
2018-10-12T02:24:45.135Z,12.41
2018-10-12T02:25:44.396Z,12.48
2018-10-12T02:26:44.320Z,12.41
2018-10-12T02:27:44.296Z,12.34
2018-10-12T02:28:44.265Z,12.40
2018-10-12T02:29:44.238Z,12.38
2018-10-12T02:30:44.697Z,12.37
2018-10-12T02:31:44.186Z,12.44
2018-10-12T02:32:44.156Z,12.36
2018-10-12T02:33:44.641Z,12.40
2018-10-12T02:34:44.639Z,12.36
2018-10-12T02:35:44.195Z,12.41
2018-10-12T02:36:44.046Z,12.40
2018-10-12T02:37:44.010Z,12.33
2018-10-12T02:38:43.982Z,12.37
2018-10-12T02:39:44.678Z,12.23
2018-10-12T02:40:44.202Z,12.22
2018-10-12T02:41:44.634Z,12.19
2018-10-12T02:42:43.864Z,12.33
2018-10-12T02:43:43.843Z,12.16
2018-10-12T02:44:43.812Z,12.28
2018-10-12T02:45:44.209Z,12.28
2018-10-12T02:46:44.637Z,12.25
2018-10-12T02:47:44.638Z,12.26
2018-10-12T02:48:44.638Z,12.33
2018-10-12T02:49:43.678Z,12.33
2018-10-12T02:50:43.681Z,12.26
2018-10-12T02:51:43.621Z,12.25
2018-10-12T02:52:43.619Z,12.31
2018-10-12T02:53:44.136Z,12.29
2018-10-12T02:54:43.522Z,12.36
2018-10-12T02:55:43.519Z,12.22
2018-10-12T02:56:43.692Z,12.26
2018-10-12T02:57:43.709Z,12.23
2018-10-12T02:58:43.410Z,12.25
2018-10-12T02:59:44.199Z,12.23
2018-10-12T03:00:44.147Z,12.18
2018-10-12T03:01:44.149Z,12.08
2018-10-12T03:02:43.342Z,12.13
2018-10-12T03:03:43.265Z,12.08
2018-10-12T03:04:43.246Z,12.15
2018-10-12T03:05:43.214Z,11.97
2018-10-12T03:06:44.149Z,12.01
2018-10-12T03:07:43.194Z,11.97
2018-10-12T03:08:43.648Z,11.94
2018-10-12T03:09:43.652Z,11.89
2018-10-12T03:10:43.640Z,11.91
2018-10-12T03:11:43.040Z,11.91
2018-10-12T03:12:43.064Z,11.86
2018-10-12T03:13:42.976Z,11.89
2018-10-12T03:14:43.640Z,11.85
2018-10-12T03:15:43.646Z,11.82
2018-10-12T03:16:43.645Z,11.76
2018-10-12T03:17:42.906Z,11.76
2018-10-12T03:18:43.646Z,11.79
2018-10-12T03:19:42.809Z,11.79
2018-10-12T03:20:42.820Z,11.66
2018-10-12T03:21:43.195Z,11.66
2018-10-12T03:22:42.715Z,11.67
2018-10-12T03:23:43.652Z,11.60
2018-10-12T03:24:42.662Z,11.61
2018-10-12T03:25:42.647Z,11.59
2018-10-12T03:26:42.650Z,11.63
2018-10-12T03:27:42.576Z,11.63
2018-10-12T03:28:42.562Z,11.61
2018-10-12T03:29:42.692Z,11.53
2018-10-12T03:30:43.145Z,11.51
2018-10-12T03:31:42.526Z,11.52
2018-10-12T03:32:42.433Z,11.48
2018-10-12T03:33:43.144Z,11.35
2018-10-12T03:34:42.409Z,11.34
2018-10-12T03:35:42.342Z,11.35
2018-10-12T03:36:42.360Z,11.35
2018-10-12T03:37:43.146Z,11.30
2018-10-12T03:38:42.276Z,11.35
2018-10-12T03:39:42.227Z,11.30
2018-10-12T03:40:42.221Z,11.35
2018-10-12T03:41:42.741Z,11.23
2018-10-12T03:42:42.137Z,11.33
2018-10-12T03:43:42.111Z,11.28
2018-10-12T03:44:42.159Z,11.23
2018-10-12T03:45:42.643Z,11.21
2018-10-12T03:46:42.066Z,11.18
2018-10-12T03:47:42.651Z,11.21
2018-10-12T03:48:42.660Z,11.21
2018-10-12T03:49:42.213Z,11.16
2018-10-12T03:50:41.904Z,11.20
2018-10-12T03:51:41.885Z,11.16
2018-10-12T03:52:41.847Z,11.16
2018-10-12T03:53:41.839Z,11.16
2018-10-12T03:54:42.556Z,11.08
2018-10-12T03:55:42.647Z,11.08
2018-10-12T03:56:42.646Z,11.12
2018-10-12T03:57:42.649Z,11.10
2018-10-12T03:58:41.673Z,11.12
2018-10-12T03:59:41.683Z,11.13
2018-10-12T04:00:41.661Z,11.08
2018-10-12T04:01:42.556Z,11.10
2018-10-12T04:02:41.588Z,11.06
2018-10-12T04:03:41.529Z,11.00
2018-10-12T04:04:41.502Z,11.06
2018-10-12T04:05:41.513Z,11.10
2018-10-12T04:06:42.161Z,11.03
2018-10-12T04:07:41.411Z,11.10
2018-10-12T04:08:42.149Z,10.97
2018-10-12T04:09:42.150Z,10.97
2018-10-12T04:10:41.730Z,10.97
2018-10-12T04:11:42.152Z,11.03
2018-10-12T04:12:41.344Z,10.97
2018-10-12T04:13:41.235Z,11.03
2018-10-12T04:14:41.774Z,10.98
2018-10-12T04:15:41.198Z,10.92
2018-10-12T04:16:41.213Z,10.98
2018-10-12T04:17:41.122Z,10.85
2018-10-12T04:18:41.093Z,10.92
2018-10-12T04:19:41.654Z,10.87
2018-10-12T04:20:41.649Z,10.83
2018-10-12T04:21:41.204Z,10.83
2018-10-12T04:22:41.209Z,10.88
2018-10-12T04:23:40.956Z,10.84
2018-10-12T04:24:41.745Z,10.80
2018-10-12T04:25:41.652Z,10.79
2018-10-12T04:26:40.922Z,10.87
2018-10-12T04:27:40.830Z,10.85
2018-10-12T04:28:40.803Z,10.83
2018-10-12T04:29:40.772Z,10.97
2018-10-12T04:30:41.652Z,11.00
2018-10-12T04:31:40.766Z,10.95
2018-10-12T04:32:41.653Z,11.06
2018-10-12T04:33:40.662Z,10.98
2018-10-12T04:34:41.156Z,10.98
2018-10-12T04:35:40.610Z,10.90
2018-10-12T04:36:40.723Z,10.97
2018-10-12T04:37:40.538Z,10.88
2018-10-12T04:38:41.160Z,10.92
2018-10-12T04:39:40.502Z,10.88
2018-10-12T04:40:41.154Z,10.85
2018-10-12T04:41:40.463Z,10.88
2018-10-12T04:42:40.472Z,10.80
2018-10-12T04:43:40.374Z,10.72
2018-10-12T04:44:40.700Z,10.73
2018-10-12T04:45:40.318Z,10.77
2018-10-12T04:46:40.711Z,10.70
2018-10-12T04:47:40.281Z,10.75
2018-10-12T04:48:40.214Z,10.75
2018-10-12T04:49:40.185Z,10.77
2018-10-12T04:50:40.152Z,10.66
2018-10-12T04:51:40.657Z,10.69
2018-10-12T04:52:40.144Z,10.75
2018-10-12T04:53:40.783Z,10.66
2018-10-12T04:54:40.210Z,10.69
2018-10-12T04:55:40.661Z,10.65
2018-10-12T04:56:40.666Z,10.57
2018-10-12T04:57:40.000Z,10.51
2018-10-12T04:58:39.920Z,10.61
2018-10-12T04:59:40.228Z,10.57
2018-10-12T05:00:39.885Z,10.51
2018-10-12T05:01:40.207Z,10.57
2018-10-12T05:02:40.212Z,10.49
2018-10-12T05:03:40.214Z,10.58
2018-10-12T05:04:40.662Z,10.58
2018-10-12T05:05:39.714Z,10.54
2018-10-12T05:06:40.657Z,10.46
2018-10-12T05:07:39.713Z,10.55
2018-10-12T05:08:39.626Z,10.54
2018-10-12T05:09:40.159Z,10.58
2018-10-12T05:10:39.565Z,10.57
2018-10-12T05:11:40.212Z,10.58
2018-10-12T05:12:39.510Z,10.52
2018-10-12T05:13:39.479Z,10.55
2018-10-12T05:14:39.713Z,10.65
2018-10-12T05:15:39.420Z,10.63
2018-10-12T05:16:39.444Z,10.70
2018-10-12T05:17:39.377Z,10.75
2018-10-12T05:18:39.334Z,10.65
2018-10-12T05:19:39.380Z,10.65
2018-10-12T05:20:39.277Z,10.65
2018-10-12T05:21:39.752Z,10.57
2018-10-12T05:22:40.174Z,10.57
2018-10-12T05:23:40.161Z,10.54
2018-10-12T05:24:39.166Z,10.52
2018-10-12T05:25:39.661Z,10.54
2018-10-12T05:26:39.139Z,10.49
2018-10-12T05:27:39.660Z,10.47
2018-10-12T05:28:39.042Z,10.47
2018-10-12T05:29:39.668Z,10.42
2018-10-12T05:30:39.021Z,10.42
2018-10-12T05:31:38.977Z,10.42
2018-10-12T05:32:38.953Z,10.46
2018-10-12T05:33:39.662Z,10.47
2018-10-12T05:34:39.220Z,10.42
2018-10-12T05:35:39.665Z,10.47
2018-10-12T05:36:38.802Z,10.41
2018-10-12T05:37:38.778Z,10.41
2018-10-12T05:38:39.668Z,10.42
2018-10-12T05:39:38.754Z,10.46
2018-10-12T05:40:39.664Z,10.44
2018-10-12T05:41:38.658Z,10.41
2018-10-12T05:42:38.693Z,10.46
2018-10-12T05:43:38.687Z,10.47
2018-10-12T05:44:38.614Z,10.44
2018-10-12T05:45:39.166Z,10.51
2018-10-12T05:46:39.164Z,10.52
2018-10-12T05:47:38.483Z,10.55
2018-10-12T05:48:39.228Z,10.54
2018-10-12T05:49:38.518Z,10.49
2018-10-12T05:50:38.394Z,10.59
2018-10-12T05:51:38.359Z,10.55
2018-10-12T05:52:38.378Z,10.52
2018-10-12T05:53:38.302Z,10.47
2018-10-12T05:54:38.270Z,10.54
2018-10-12T05:55:38.293Z,10.58
2018-10-12T05:56:38.256Z,10.47
2018-10-12T05:57:38.186Z,10.49
2018-10-12T05:58:38.157Z,10.67
2018-10-12T05:59:38.133Z,10.57
2018-10-12T06:00:38.092Z,10.57
2018-10-12T06:01:38.109Z,10.61
2018-10-12T06:02:38.049Z,10.66
2018-10-12T06:03:38.006Z,10.69
2018-10-12T06:04:38.015Z,10.63
2018-10-12T06:05:37.988Z,10.65
2018-10-12T06:06:37.916Z,10.69
2018-10-12T06:07:38.716Z,10.66
2018-10-12T06:08:37.857Z,10.66
2018-10-12T06:09:37.909Z,10.75
2018-10-12T06:10:37.845Z,10.66
2018-10-12T06:11:38.306Z,10.61
2018-10-12T06:12:37.745Z,10.63
2018-10-12T06:13:37.718Z,10.66
2018-10-12T06:14:37.684Z,10.75
2018-10-12T06:15:37.747Z,10.79
2018-10-12T06:16:37.622Z,10.72
2018-10-12T06:17:39.182Z,10.88
2018-10-12T06:18:37.563Z,10.92
2018-10-12T06:19:37.643Z,10.90
2018-10-12T06:20:37.508Z,11.05
2018-10-12T06:21:37.596Z,11.03
2018-10-12T06:22:37.448Z,11.15
2018-10-12T06:23:37.422Z,11.21
2018-10-12T06:24:37.388Z,11.15
2018-10-12T06:25:37.365Z,11.23
2018-10-12T06:26:37.416Z,11.23
2018-10-12T06:27:37.306Z,11.23
2018-10-12T06:28:37.274Z,11.18
2018-10-12T06:29:37.243Z,11.21
2018-10-12T06:30:37.214Z,11.21
2018-10-12T06:31:37.232Z,11.23
2018-10-12T06:32:37.208Z,11.20
2018-10-12T06:33:37.127Z,11.24
2018-10-12T06:34:37.096Z,11.15
2018-10-12T06:35:37.077Z,11.18
2018-10-12T06:36:37.083Z,11.26
2018-10-12T06:37:37.011Z,11.20
2018-10-12T06:38:36.997Z,11.21
2018-10-12T06:39:36.956Z,11.16
2018-10-12T06:40:36.969Z,11.31
2018-10-12T06:41:36.963Z,11.26
2018-10-12T06:42:36.913Z,11.27
2018-10-12T06:43:36.833Z,11.31
2018-10-12T06:44:36.869Z,11.33
2018-10-12T06:45:36.780Z,11.34
2018-10-12T06:46:36.851Z,11.52
2018-10-12T06:47:36.761Z,11.52
2018-10-12T06:48:36.718Z,11.53
2018-10-12T06:49:36.661Z,11.61
2018-10-12T06:50:36.635Z,11.66
2018-10-12T06:51:36.646Z,11.66
2018-10-12T06:52:36.574Z,11.66
2018-10-12T06:53:36.589Z,11.70
2018-10-12T06:54:36.515Z,11.82
2018-10-12T06:55:36.487Z,11.81
2018-10-12T06:56:36.732Z,11.98
2018-10-12T06:57:36.434Z,12.00
2018-10-12T06:58:36.516Z,11.98
2018-10-12T06:59:36.392Z,12.13
2018-10-12T07:00:36.344Z,12.19
2018-10-12T07:01:36.320Z,12.31
2018-10-12T07:02:36.290Z,12.37
2018-10-12T07:03:36.314Z,12.51
2018-10-12T07:04:36.228Z,12.61
2018-10-12T07:05:36.223Z,12.58
2018-10-12T07:06:36.178Z,12.65
2018-10-12T07:07:36.143Z,12.65
2018-10-12T07:08:36.154Z,12.73
2018-10-12T07:09:36.130Z,12.78
2018-10-12T07:10:36.059Z,12.70
2018-10-12T07:11:36.034Z,12.84
2018-10-12T07:12:36.002Z,12.91
2018-10-12T07:13:36.019Z,12.94
2018-10-12T07:14:35.942Z,12.91
2018-10-12T07:15:35.958Z,12.92
2018-10-12T07:16:35.894Z,12.96
2018-10-12T07:17:35.871Z,13.01
2018-10-12T07:18:35.841Z,13.13
2018-10-12T07:19:36.751Z,13.10
2018-10-12T07:20:35.824Z,13.11
2018-10-12T07:21:35.748Z,13.19
2018-10-12T07:22:35.719Z,13.21
2018-10-12T07:23:36.682Z,13.27
2018-10-12T07:24:35.664Z,13.28
2018-10-12T07:25:35.686Z,13.29
2018-10-12T07:26:35.606Z,13.27
2018-10-12T07:27:35.654Z,13.39
2018-10-12T07:28:35.743Z,13.39
2018-10-12T07:29:35.529Z,13.44
2018-10-12T07:30:35.513Z,13.45
2018-10-12T07:31:35.517Z,13.47
2018-10-12T07:32:36.181Z,13.58
2018-10-12T07:33:35.470Z,13.60
2018-10-12T07:34:35.383Z,13.62
2018-10-12T07:35:35.356Z,13.68
2018-10-12T07:36:35.332Z,13.81
2018-10-12T07:37:35.312Z,13.83
2018-10-12T07:38:35.736Z,13.90
2018-10-12T07:39:35.246Z,13.83
2018-10-12T07:40:35.266Z,13.91
2018-10-12T07:41:35.189Z,14.05
2018-10-12T07:42:35.297Z,14.15
2018-10-12T07:43:35.137Z,14.23
2018-10-12T07:44:35.168Z,14.20
2018-10-12T07:45:35.089Z,14.20
2018-10-12T07:46:35.062Z,14.33
2018-10-12T07:47:35.028Z,14.38
2018-10-12T07:48:35.002Z,14.41
2018-10-12T07:49:35.014Z,14.41
2018-10-12T07:50:34.945Z,14.44
2018-10-12T07:51:34.916Z,14.51
2018-10-12T07:52:34.890Z,14.52
2018-10-12T07:53:35.017Z,14.57
2018-10-12T07:54:34.834Z,14.60
2018-10-12T07:55:34.808Z,14.52
2018-10-12T07:56:34.779Z,14.61
2018-10-12T07:57:34.758Z,14.64
2018-10-12T07:58:34.779Z,14.69
2018-10-12T07:59:34.698Z,14.74
2018-10-12T08:00:34.771Z,14.70
2018-10-12T08:01:34.649Z,14.69
2018-10-12T08:02:34.753Z,14.75
2018-10-12T08:03:34.591Z,14.85
2018-10-12T08:04:34.564Z,14.90
2018-10-12T08:05:34.544Z,14.82
2018-10-12T08:06:34.600Z,14.89
2018-10-12T08:07:34.526Z,14.94
2018-10-12T08:08:35.190Z,14.97
2018-10-12T08:09:34.783Z,14.98
2018-10-12T08:10:34.404Z,15.00
2018-10-12T08:11:34.380Z,15.18
2018-10-12T08:12:34.357Z,15.18
2018-10-12T08:13:35.252Z,15.18
2018-10-12T08:14:34.330Z,15.18
2018-10-12T08:15:34.313Z,15.16
2018-10-12T08:16:35.188Z,15.26
2018-10-12T08:17:34.230Z,15.20
2018-10-12T08:18:34.234Z,15.26
2018-10-12T08:19:34.158Z,15.35
2018-10-12T08:20:34.285Z,15.38
2018-10-12T08:21:34.161Z,15.41
2018-10-12T08:22:34.103Z,15.37
2018-10-12T08:23:34.056Z,15.45
2018-10-12T08:24:34.031Z,15.51
2018-10-12T08:25:34.743Z,15.51
2018-10-12T08:26:34.015Z,15.44
2018-10-12T08:27:33.950Z,15.59
2018-10-12T08:28:33.922Z,15.56
2018-10-12T08:29:33.939Z,15.63
2018-10-12T08:30:33.961Z,15.74
2018-10-12T08:31:34.347Z,15.71
2018-10-12T08:32:33.829Z,15.75
2018-10-12T08:33:33.792Z,15.86
2018-10-12T08:34:33.764Z,15.89
2018-10-12T08:35:33.837Z,15.92
2018-10-12T08:36:33.825Z,15.89
2018-10-12T08:37:33.685Z,15.91
2018-10-12T08:38:33.665Z,15.88
2018-10-12T08:39:34.196Z,16.04
2018-10-12T08:40:33.607Z,16.07
2018-10-12T08:41:33.647Z,16.07
2018-10-12T08:42:33.564Z,16.08
2018-10-12T08:43:33.531Z,16.13
2018-10-12T08:44:33.505Z,16.16
2018-10-12T08:45:34.266Z,16.18
2018-10-12T08:46:33.492Z,16.34
2018-10-12T08:47:33.469Z,16.40
2018-10-12T08:48:33.419Z,16.51
2018-10-12T08:49:33.374Z,16.51
2018-10-12T08:50:33.346Z,16.58
2018-10-12T08:51:33.319Z,16.65
2018-10-12T08:52:33.387Z,16.80
2018-10-12T08:53:33.270Z,16.66
2018-10-12T08:54:33.247Z,16.70
2018-10-12T08:55:33.287Z,16.76
2018-10-12T08:56:33.199Z,16.76
2018-10-12T08:57:33.219Z,16.80
2018-10-12T08:58:33.154Z,16.81
2018-10-12T08:59:33.119Z,16.87
2018-10-12T09:00:33.091Z,16.90
2018-10-12T09:01:33.102Z,16.90
2018-10-12T09:02:33.051Z,16.92
2018-10-12T09:03:33.014Z,16.99
2018-10-12T09:04:33.032Z,17.03
2018-10-12T09:05:32.976Z,17.09
2018-10-12T09:06:32.982Z,17.09
2018-10-12T09:07:32.922Z,17.22
2018-10-12T09:08:32.884Z,17.17
2018-10-12T09:09:33.716Z,17.21
2018-10-12T09:10:32.850Z,17.25
2018-10-12T09:11:33.265Z,17.30
2018-10-12T09:12:32.793Z,17.32
2018-10-12T09:13:32.762Z,17.38
2018-10-12T09:14:32.734Z,17.54
2018-10-12T09:15:32.758Z,17.55
2018-10-12T09:16:33.205Z,17.49
2018-10-12T09:17:32.659Z,17.50
2018-10-12T09:18:32.681Z,17.52
2018-10-12T09:19:32.610Z,17.55
2018-10-12T09:20:32.855Z,17.68
2018-10-12T09:21:32.559Z,17.76
2018-10-12T09:22:32.532Z,17.77
2018-10-12T09:23:32.509Z,17.76
2018-10-12T09:24:32.483Z,17.79
2018-10-12T09:25:32.505Z,17.84
2018-10-12T09:26:32.437Z,17.77
2018-10-12T09:27:32.408Z,17.86
2018-10-12T09:28:32.383Z,17.86
2018-10-12T09:29:32.359Z,17.81
2018-10-12T09:30:32.373Z,17.90
2018-10-12T09:31:32.317Z,17.94
2018-10-12T09:32:32.284Z,17.92
2018-10-12T09:33:32.260Z,18.01
2018-10-12T09:34:32.237Z,18.01
2018-10-12T09:35:32.254Z,18.06
2018-10-12T09:36:32.272Z,18.10
2018-10-12T09:37:32.162Z,18.08
2018-10-12T09:38:32.148Z,18.06
2018-10-12T09:39:32.111Z,18.19
2018-10-12T09:40:32.299Z,18.20
2018-10-12T09:41:32.064Z,18.31
2018-10-12T09:42:32.038Z,18.51
2018-10-12T09:43:32.018Z,18.45
2018-10-12T09:44:31.992Z,18.59
2018-10-12T09:45:32.020Z,18.66
2018-10-12T09:46:31.950Z,18.61
2018-10-12T09:47:32.720Z,18.63
2018-10-12T09:48:31.892Z,18.66
2018-10-12T09:49:31.888Z,18.61
2018-10-12T09:50:31.970Z,18.69
2018-10-12T09:51:31.825Z,18.74
2018-10-12T09:52:31.796Z,18.72
2018-10-12T09:53:31.794Z,18.78
2018-10-12T09:54:31.819Z,18.76
2018-10-12T09:55:31.747Z,18.81
2018-10-12T09:56:32.222Z,18.82
2018-10-12T09:57:31.687Z,18.84
2018-10-12T09:58:32.215Z,18.93
2018-10-12T09:59:31.778Z,18.89
2018-10-12T10:00:31.762Z,18.86
2018-10-12T10:01:32.215Z,18.96
2018-10-12T10:02:32.213Z,18.99
2018-10-12T10:03:31.530Z,19.10
2018-10-12T10:04:31.506Z,19.17
2018-10-12T10:05:31.527Z,19.25
2018-10-12T10:06:31.463Z,19.32
2018-10-12T10:07:31.486Z,19.24
2018-10-12T10:08:31.601Z,19.40
2018-10-12T10:09:31.399Z,19.42
2018-10-12T10:10:31.408Z,19.37
2018-10-12T10:11:31.343Z,19.37
2018-10-12T10:12:31.355Z,19.46
2018-10-12T10:13:31.291Z,19.43
2018-10-12T10:14:31.266Z,19.45
2018-10-12T10:15:31.340Z,19.53
2018-10-12T10:16:31.226Z,19.47
2018-10-12T10:17:31.195Z,19.52
2018-10-12T10:18:31.172Z,19.56
2018-10-12T10:19:31.159Z,19.53
2018-10-12T10:20:31.163Z,19.57
2018-10-12T10:21:31.156Z,19.57
2018-10-12T10:22:31.120Z,19.68
2018-10-12T10:23:31.101Z,19.61
2018-10-12T10:24:31.034Z,19.60
2018-10-12T10:25:31.007Z,19.63
2018-10-12T10:26:31.049Z,19.67
2018-10-12T10:27:30.960Z,19.74
2018-10-12T10:28:30.980Z,19.86
2018-10-12T10:29:30.915Z,19.87
2018-10-12T10:30:30.893Z,19.90
2018-10-12T10:31:30.865Z,20.05
2018-10-12T10:32:30.844Z,19.97
2018-10-12T10:33:30.868Z,20.05
2018-10-12T10:34:30.799Z,20.00
2018-10-12T10:35:30.805Z,20.01
2018-10-12T10:36:30.752Z,20.01
2018-10-12T10:37:30.732Z,20.11
2018-10-12T10:38:30.762Z,20.07
2018-10-12T10:39:30.683Z,20.11
2018-10-12T10:40:30.657Z,20.30
2018-10-12T10:41:30.638Z,20.27
2018-10-12T10:42:30.678Z,20.37
2018-10-12T10:43:30.629Z,20.38
2018-10-12T10:44:30.567Z,20.44
2018-10-12T10:45:30.563Z,20.48
2018-10-12T10:46:30.535Z,20.48
2018-10-12T10:47:30.515Z,20.48
2018-10-12T10:48:30.534Z,20.51
2018-10-12T10:49:30.523Z,20.49
2018-10-12T10:50:30.436Z,20.44
2018-10-12T10:51:30.404Z,20.44
2018-10-12T10:52:30.430Z,20.54
2018-10-12T10:53:30.413Z,20.64
2018-10-12T10:54:30.340Z,20.75
2018-10-12T10:55:30.356Z,20.76
2018-10-12T10:56:31.225Z,20.82
2018-10-12T10:57:30.268Z,20.83
2018-10-12T10:58:30.283Z,20.79
2018-10-12T10:59:30.727Z,20.85
2018-10-12T11:00:30.238Z,20.86
2018-10-12T11:01:30.175Z,20.96
2018-10-12T11:02:30.189Z,20.94
2018-10-12T11:03:30.130Z,20.94
2018-10-12T11:04:30.163Z,21.00
2018-10-12T11:05:30.115Z,20.94
2018-10-12T11:06:30.087Z,21.03
2018-10-12T11:07:30.040Z,21.11
2018-10-12T11:08:30.019Z,21.25
2018-10-12T11:09:30.036Z,21.16
2018-10-12T11:10:30.025Z,21.23
2018-10-12T11:11:29.952Z,21.23
2018-10-12T11:12:30.092Z,21.19
2018-10-12T11:13:29.907Z,21.19
2018-10-12T11:14:30.747Z,21.16
2018-10-12T11:15:29.907Z,21.33
2018-10-12T11:16:29.841Z,21.30
2018-10-12T11:17:29.819Z,21.28
2018-10-12T11:18:29.801Z,21.34
2018-10-12T11:19:29.786Z,21.37
2018-10-12T11:20:29.794Z,21.53
2018-10-12T11:21:29.742Z,21.52
2018-10-12T11:22:29.755Z,21.51
2018-10-12T11:23:29.736Z,21.61
2018-10-12T11:24:29.774Z,21.61
2018-10-12T11:25:29.642Z,21.66
2018-10-12T11:26:29.707Z,21.76
2018-10-12T11:27:29.600Z,21.77
2018-10-12T11:28:29.577Z,21.71
2018-10-12T11:29:29.549Z,21.71
2018-10-12T11:30:29.579Z,21.78
2018-10-12T11:31:29.505Z,21.82
2018-10-12T11:32:29.495Z,21.89
2018-10-12T11:33:29.472Z,21.89
2018-10-12T11:34:30.145Z,21.93
2018-10-12T11:35:29.462Z,21.99
2018-10-12T11:36:29.396Z,21.99
2018-10-12T11:37:29.374Z,21.92
2018-10-12T11:38:29.413Z,22.12
2018-10-12T11:39:29.366Z,22.00
2018-10-12T11:40:29.310Z,22.04
2018-10-12T11:41:29.342Z,22.08
2018-10-12T11:42:29.263Z,22.11
2018-10-12T11:43:29.242Z,22.14
2018-10-12T11:44:29.220Z,22.18
2018-10-12T11:45:29.270Z,22.26
2018-10-12T11:46:29.226Z,22.18
2018-10-12T11:47:29.746Z,22.31
2018-10-12T11:48:29.186Z,22.39
2018-10-12T11:49:29.110Z,22.39
2018-10-12T11:50:29.094Z,22.44
2018-10-12T11:51:29.072Z,22.44
2018-10-12T11:52:29.651Z,22.46
2018-10-12T11:53:29.069Z,22.51
2018-10-12T11:54:29.018Z,22.48
2018-10-12T11:55:28.982Z,22.44
2018-10-12T11:56:28.961Z,22.49
2018-10-12T11:57:28.985Z,22.44
2018-10-12T11:58:28.915Z,22.46
2018-10-12T11:59:28.937Z,22.46
2018-10-12T12:00:28.872Z,22.48
2018-10-12T12:01:28.853Z,22.49
2018-10-12T12:02:28.892Z,22.45
2018-10-12T12:03:28.812Z,22.54
2018-10-12T12:04:28.787Z,22.45
2018-10-12T12:05:28.768Z,22.49
2018-10-12T12:06:28.768Z,22.49
2018-10-12T12:07:28.777Z,22.55
2018-10-12T12:08:28.754Z,22.64
2018-10-12T12:09:28.676Z,22.67
2018-10-12T12:10:28.704Z,22.69
2018-10-12T12:11:28.643Z,22.79
2018-10-12T12:12:28.615Z,22.85
2018-10-12T12:13:28.687Z,22.85
2018-10-12T12:14:28.574Z,22.82
2018-10-12T12:15:28.546Z,22.97
2018-10-12T12:16:28.531Z,22.94
2018-10-12T12:17:28.506Z,22.89
2018-10-12T12:18:28.541Z,22.88
2018-10-12T12:19:28.505Z,22.92
2018-10-12T12:20:28.443Z,22.94
2018-10-12T12:21:28.434Z,22.96
2018-10-12T12:22:28.402Z,23.00
2018-10-12T12:23:28.424Z,23.03
2018-10-12T12:24:28.418Z,22.92
2018-10-12T12:25:28.338Z,23.00
2018-10-12T12:26:28.350Z,23.01
2018-10-12T12:27:28.293Z,22.92
2018-10-12T12:28:28.272Z,23.03
2018-10-12T12:29:28.294Z,22.96
2018-10-12T12:30:28.239Z,23.04
2018-10-12T12:31:28.206Z,22.94
2018-10-12T12:32:28.237Z,22.91
2018-10-12T12:33:28.182Z,22.94
2018-10-12T12:34:28.206Z,23.04
2018-10-12T12:35:28.413Z,23.01
2018-10-12T12:36:28.107Z,23.01
2018-10-12T12:37:28.137Z,23.04
2018-10-12T12:38:28.065Z,23.06
2018-10-12T12:39:28.035Z,23.01
2018-10-12T12:40:28.020Z,22.99
2018-10-12T12:41:27.997Z,23.10
2018-10-12T12:42:28.027Z,23.14
2018-10-12T12:43:27.954Z,23.15
2018-10-12T12:44:27.932Z,23.19
2018-10-12T12:45:27.913Z,23.18
2018-10-12T12:46:27.895Z,23.22
2018-10-12T12:47:27.985Z,23.28
2018-10-12T12:48:28.156Z,23.28
2018-10-12T12:49:28.081Z,23.28
2018-10-12T12:50:27.814Z,23.26
2018-10-12T12:51:27.867Z,23.24
2018-10-12T12:52:27.767Z,23.32